createdAt,value
2022-11-15T00:01:28.266Z,23.67
2022-11-15T00:03:56.848Z,23.66
2022-11-15T00:06:25.545Z,23.66
2022-11-15T00:08:54.221Z,23.64
2022-11-15T00:11:23.012Z,23.62
2022-11-15T00:13:51.482Z,23.62
2022-11-15T00:16:19.756Z,23.61
2022-11-15T00:18:51.001Z,23.60
2022-11-15T00:21:19.692Z,23.59
2022-11-15T00:23:48.072Z,23.59
2022-11-15T00:26:17.074Z,23.58
2022-11-15T00:28:45.749Z,23.57
2022-11-15T00:31:15.566Z,23.59
2022-11-15T00:33:45.456Z,23.57
2022-11-15T00:36:14.472Z,23.57
2022-11-15T00:38:42.954Z,23.54
2022-11-15T00:41:11.459Z,23.53
2022-11-15T00:43:41.267Z,23.54
2022-11-15T00:46:10.944Z,23.52
2022-11-15T00:48:39.442Z,23.52
2022-11-15T00:51:07.922Z,23.50
2022-11-15T00:53:36.506Z,23.49
2022-11-15T00:56:04.988Z,23.49
2022-11-15T00:58:33.163Z,23.48
2022-11-15T01:01:09.352Z,23.47
2022-11-15T01:03:39.639Z,23.46
2022-11-15T01:06:09.355Z,23.44
2022-11-15T01:08:37.842Z,23.43
2022-11-15T01:11:09.913Z,23.43
2022-11-15T01:13:39.419Z,23.42
2022-11-15T01:16:13.842Z,23.42
2022-11-15T01:18:42.626Z,23.43
2022-11-15T01:21:12.845Z,23.43
2022-11-15T01:23:41.122Z,23.42
2022-11-15T01:26:12.342Z,23.40
2022-11-15T01:28:41.921Z,23.39
2022-11-15T01:31:19.172Z,23.41
2022-11-15T01:33:48.625Z,23.39
2022-11-15T01:36:19.689Z,23.40
2022-11-15T01:38:50.345Z,23.38
2022-11-15T01:41:21.475Z,23.37
2022-11-15T01:43:58.536Z,23.37
2022-11-15T01:46:36.885Z,23.36
2022-11-15T01:49:14.681Z,23.36
2022-11-15T01:51:42.856Z,23.38
2022-11-15T01:54:14.515Z,23.39
2022-11-15T01:56:47.353Z,23.36
2022-11-15T01:59:15.881Z,23.36
2022-11-15T02:01:44.465Z,23.36
2022-11-15T02:04:29.149Z,23.35
2022-11-15T02:06:57.432Z,23.34
2022-11-15T02:09:25.889Z,23.35
2022-11-15T02:11:55.187Z,23.33
2022-11-15T02:14:24.592Z,23.31
2022-11-15T02:17:02.085Z,23.30
2022-11-15T02:19:37.836Z,23.31
2022-11-15T02:22:12.157Z,23.34
2022-11-15T02:25:13.098Z,23.35
2022-11-15T02:27:41.479Z,23.37
2022-11-15T02:30:30.231Z,23.38
2022-11-15T02:33:01.585Z,23.33
2022-11-15T02:35:42.040Z,23.31
2022-11-15T02:38:26.296Z,23.30
2022-11-15T02:41:02.667Z,23.29
2022-11-15T02:43:59.609Z,23.28
2022-11-15T02:47:04.851Z,23.27
2022-11-15T02:49:36.175Z,23.27
2022-11-15T02:52:05.096Z,23.24
2022-11-15T02:54:35.007Z,23.23
2022-11-15T02:57:12.191Z,23.24
2022-11-15T02:59:52.150Z,23.24
2022-11-15T03:02:35.884Z,23.23
2022-11-15T03:05:21.465Z,23.23
2022-11-15T03:08:01.819Z,23.24
2022-11-15T03:10:49.260Z,23.27
2022-11-15T03:13:36.070Z,23.26
2022-11-15T03:16:14.796Z,23.24
2022-11-15T03:18:46.882Z,23.22
2022-11-15T03:21:15.852Z,23.23
2022-11-15T03:23:45.051Z,23.20
2022-11-15T03:26:15.784Z,23.18
2022-11-15T03:29:14.783Z,23.18
2022-11-15T03:31:51.216Z,23.23
2022-11-15T03:34:33.181Z,23.24
2022-11-15T03:37:02.143Z,23.24
2022-11-15T03:39:31.034Z,23.23
2022-11-15T03:42:05.658Z,23.21
2022-11-15T03:44:37.007Z,23.18
2022-11-15T03:47:11.736Z,23.17
2022-11-15T03:49:45.448Z,23.16
2022-11-15T03:52:13.941Z,23.15
2022-11-15T03:54:56.740Z,23.15
2022-11-15T03:57:25.327Z,23.14
2022-11-15T03:59:54.623Z,23.14
2022-11-15T04:02:23.105Z,23.13
2022-11-15T04:04:51.899Z,23.11
2022-11-15T04:07:20.752Z,23.11
2022-11-15T04:10:05.071Z,23.10
2022-11-15T04:12:44.887Z,23.08
2022-11-15T04:15:19.054Z,23.09
2022-11-15T04:17:52.855Z,23.10
2022-11-15T04:20:42.440Z,23.10
2022-11-15T04:23:39.025Z,23.09
2022-11-15T04:26:13.446Z,23.09
2022-11-15T04:29:02.005Z,23.06
2022-11-15T04:31:30.894Z,23.08
2022-11-15T04:33:59.682Z,23.10
2022-11-15T04:36:46.902Z,23.08
2022-11-15T04:39:15.597Z,23.06
2022-11-15T04:41:44.376Z,23.05
2022-11-15T04:44:13.061Z,23.04
2022-11-15T04:46:41.665Z,23.02
2022-11-15T04:49:10.332Z,23.02
2022-11-15T04:51:39.023Z,23.01
2022-11-15T04:54:08.028Z,23.01
2022-11-15T04:56:36.596Z,23.01
2022-11-15T04:59:05.180Z,23.01
2022-11-15T05:01:34.022Z,23.00
2022-11-15T05:04:21.202Z,22.99
2022-11-15T05:06:53.295Z,22.97
2022-11-15T05:09:22.454Z,22.97
2022-11-15T05:11:51.038Z,22.97
2022-11-15T05:14:19.832Z,22.97
2022-11-15T05:16:48.615Z,22.96
2022-11-15T05:19:17.202Z,22.96
2022-11-15T05:21:45.988Z,22.95
2022-11-15T05:24:14.675Z,22.93
2022-11-15T05:26:43.260Z,22.92
2022-11-15T05:29:12.664Z,22.93
2022-11-15T05:31:43.431Z,22.93
2022-11-15T05:34:12.083Z,22.97
2022-11-15T05:36:44.258Z,22.95
2022-11-15T05:39:13.142Z,22.96
2022-11-15T05:41:52.108Z,22.97
2022-11-15T05:44:23.525Z,22.94
2022-11-15T05:46:54.977Z,22.93
2022-11-15T05:49:26.702Z,22.88
2022-11-15T05:51:55.828Z,22.94
2022-11-15T05:54:24.837Z,22.95
2022-11-15T05:56:53.814Z,22.93
2022-11-15T05:59:22.504Z,22.95
2022-11-15T06:01:51.419Z,22.93
2022-11-15T06:04:19.981Z,22.93
2022-11-15T06:06:48.694Z,22.96
2022-11-15T06:09:17.621Z,22.97
2022-11-15T06:11:46.141Z,22.97
2022-11-15T06:14:14.909Z,22.97
2022-11-15T06:16:43.722Z,22.96
2022-11-15T06:19:12.507Z,22.95
2022-11-15T06:21:41.312Z,22.95
2022-11-15T06:24:09.908Z,22.94
2022-11-15T06:26:38.571Z,22.94
2022-11-15T06:29:07.357Z,22.94
2022-11-15T06:31:36.452Z,22.93
2022-11-15T06:34:05.055Z,22.93
2022-11-15T06:36:36.288Z,22.98
2022-11-15T06:39:06.139Z,22.96
2022-11-15T06:41:37.960Z,23.01
2022-11-15T06:44:06.646Z,23.00
2022-11-15T06:46:35.435Z,22.99
2022-11-15T06:49:09.445Z,23.01
2022-11-15T06:51:38.543Z,23.00
2022-11-15T06:54:07.327Z,23.01
2022-11-15T06:56:35.912Z,23.03
2022-11-15T06:59:04.607Z,23.08
2022-11-15T07:01:33.333Z,23.03
2022-11-15T07:04:02.178Z,23.05
2022-11-15T07:06:30.758Z,23.09
2022-11-15T07:09:01.909Z,23.09
2022-11-15T07:11:30.594Z,23.09
2022-11-15T07:13:59.292Z,23.11
2022-11-15T07:16:27.961Z,23.10
2022-11-15T07:18:56.659Z,23.07
2022-11-15T07:21:27.718Z,23.07
2022-11-15T07:23:57.093Z,23.05
2022-11-15T07:26:25.677Z,23.05
2022-11-15T07:28:54.365Z,23.04
2022-11-15T07:31:23.871Z,23.03
2022-11-15T07:33:52.452Z,23.02
2022-11-15T07:36:21.243Z,23.02
2022-11-15T07:38:49.937Z,23.03
2022-11-15T07:41:18.513Z,23.01
2022-11-15T07:43:47.407Z,23.01
2022-11-15T07:46:15.991Z,23.01
2022-11-15T07:48:45.487Z,22.99
2022-11-15T07:51:15.894Z,22.99
2022-11-15T07:53:45.428Z,23.01
2022-11-15T07:56:14.221Z,23.01
2022-11-15T07:58:43.006Z,23.02
2022-11-15T08:01:12.036Z,23.01
2022-11-15T08:03:40.795Z,23.01
2022-11-15T08:06:09.583Z,23.02
2022-11-15T08:08:38.570Z,23.01
2022-11-15T08:11:07.256Z,23.02
2022-11-15T08:13:36.139Z,23.02
2022-11-15T08:16:06.769Z,23.02
2022-11-15T08:18:36.086Z,23.02
2022-11-15T08:21:05.491Z,23.03
2022-11-15T08:23:34.266Z,23.03
2022-11-15T08:26:04.751Z,23.04
2022-11-15T08:28:33.899Z,23.03
2022-11-15T08:31:02.996Z,23.04
2022-11-15T08:33:32.555Z,23.04
2022-11-15T08:36:02.426Z,23.03
2022-11-15T08:38:32.183Z,23.04
2022-11-15T08:41:05.784Z,23.05
2022-11-15T08:43:35.040Z,23.05
2022-11-15T08:46:03.724Z,23.06
2022-11-15T08:48:32.713Z,23.06
2022-11-15T08:51:01.807Z,23.06
2022-11-15T08:53:30.595Z,23.06
2022-11-15T08:55:59.492Z,23.05
2022-11-15T08:58:28.075Z,23.05
2022-11-15T09:00:56.759Z,23.06
2022-11-15T09:03:26.779Z,23.05
2022-11-15T09:05:57.180Z,23.06
2022-11-15T09:11:17.853Z,23.10
2022-11-15T09:13:46.403Z,23.12
2022-11-15T09:16:16.630Z,23.11
2022-11-15T09:18:45.236Z,23.10
2022-11-15T09:28:53.372Z,23.97
2022-11-15T09:31:22.408Z,23.89
2022-11-15T09:33:51.157Z,23.78
2022-11-15T09:36:19.842Z,23.63
2022-11-15T09:38:49.042Z,23.52
2022-11-15T09:41:26.635Z,23.44
2022-11-15T09:44:25.916Z,23.37
2022-11-15T09:47:23.503Z,23.32
2022-11-15T09:49:58.653Z,23.30
2022-11-15T09:52:27.225Z,23.27
2022-11-15T09:54:56.545Z,23.25
2022-11-15T09:57:45.711Z,23.21
2022-11-15T10:00:46.917Z,23.21
2022-11-15T10:03:22.646Z,23.26
2022-11-15T10:05:52.926Z,23.27
2022-11-15T10:08:30.712Z,23.24
2022-11-15T10:14:10.577Z,23.23
2022-11-15T10:17:22.793Z,23.25
2022-11-15T10:20:06.172Z,23.25
2022-11-15T10:22:56.215Z,23.23
2022-11-15T10:25:30.341Z,23.24
2022-11-15T10:28:17.347Z,23.24
2022-11-15T10:30:55.096Z,23.21
2022-11-15T10:33:28.342Z,23.18
2022-11-15T10:36:15.350Z,23.16
2022-11-15T10:38:50.706Z,23.14
2022-11-15T10:41:40.577Z,23.13
2022-11-15T10:44:18.281Z,23.15
2022-11-15T10:46:57.921Z,23.17
2022-11-15T10:49:31.741Z,23.15
2022-11-15T10:52:06.239Z,23.14
2022-11-15T10:54:44.748Z,23.13
2022-11-15T10:57:19.330Z,23.14
2022-11-15T10:59:53.970Z,23.14
2022-11-15T11:02:47.279Z,23.13
2022-11-15T11:05:39.919Z,23.16
2022-11-15T11:08:13.641Z,23.19
2022-11-15T11:11:02.503Z,23.18
2022-11-15T11:13:36.952Z,23.18
2022-11-15T11:16:23.950Z,23.19
2022-11-15T11:19:30.299Z,23.17
2022-11-15T11:22:01.546Z,23.14
2022-11-15T11:24:47.024Z,23.11
2022-11-15T11:27:30.869Z,23.10
2022-11-15T11:30:14.682Z,23.09
2022-11-15T11:33:07.871Z,23.08
2022-11-15T11:35:53.250Z,23.08
2022-11-15T11:38:39.956Z,23.07
2022-11-15T11:41:08.644Z,23.06
2022-11-15T11:43:58.531Z,23.05
2022-11-15T11:46:45.747Z,23.04
2022-11-15T11:49:23.547Z,23.03
2022-11-15T11:52:15.275Z,23.03
2022-11-15T11:55:04.133Z,23.06
2022-11-15T11:57:35.175Z,23.08
2022-11-15T12:00:18.724Z,23.07
2022-11-15T12:03:08.765Z,23.06
2022-11-15T12:05:51.098Z,23.04
2022-11-15T12:08:53.575Z,23.03
2022-11-15T12:11:24.007Z,23.05
2022-11-15T12:14:00.307Z,23.02
2022-11-15T12:16:33.444Z,23.06
2022-11-15T12:19:03.963Z,23.04
2022-11-15T12:21:47.737Z,23.04
2022-11-15T12:24:19.075Z,23.03
2022-11-15T12:26:52.329Z,23.00
2022-11-15T12:29:51.269Z,22.99
2022-11-15T12:32:36.158Z,23.03
2022-11-15T12:35:07.283Z,23.01
2022-11-15T12:37:44.465Z,22.98
2022-11-15T12:40:32.099Z,23.01
2022-11-15T12:43:08.193Z,23.01
2022-11-15T12:45:39.775Z,23.02
2022-11-15T12:48:16.896Z,23.04
2022-11-15T12:50:57.252Z,23.04
2022-11-15T12:53:25.840Z,23.06
2022-11-15T12:56:03.433Z,23.03
2022-11-15T12:58:47.585Z,23.08
2022-11-15T13:01:34.597Z,23.02
2022-11-15T13:04:21.416Z,23.00
2022-11-15T13:06:53.002Z,23.01
2022-11-15T13:09:33.220Z,23.00
2022-11-15T13:12:03.479Z,23.02
2022-11-15T13:14:45.133Z,23.04
2022-11-15T13:17:22.423Z,23.08
2022-11-15T13:20:01.043Z,23.03
2022-11-15T13:22:48.466Z,23.03
2022-11-15T13:25:36.945Z,23.01
2022-11-15T13:28:12.876Z,23.02
2022-11-15T13:30:56.820Z,23.04
2022-11-15T13:33:35.725Z,23.03
2022-11-15T13:36:24.603Z,23.04
2022-11-15T13:39:01.793Z,23.03
2022-11-15T13:41:32.751Z,22.99
2022-11-15T13:44:02.375Z,22.97
2022-11-15T13:46:34.747Z,22.95
2022-11-15T13:49:11.946Z,22.95
2022-11-15T13:51:50.005Z,22.94
2022-11-15T13:54:30.573Z,22.91
2022-11-15T13:57:11.644Z,22.91
2022-11-15T14:00:02.373Z,22.93
2022-11-15T14:02:36.079Z,22.88
2022-11-15T14:05:21.124Z,22.87
2022-11-15T14:07:59.444Z,22.90
2022-11-15T14:10:37.411Z,22.88
2022-11-15T14:13:11.482Z,22.90
2022-11-15T14:15:41.270Z,22.86
2022-11-15T14:18:58.490Z,22.85
2022-11-15T14:21:26.974Z,22.94
2022-11-15T14:24:21.675Z,22.91
2022-11-15T14:26:50.152Z,22.94
2022-11-15T14:29:31.125Z,22.93
2022-11-15T14:32:23.878Z,22.90
2022-11-15T14:35:02.868Z,22.94
2022-11-15T14:37:35.410Z,22.94
2022-11-15T14:40:06.373Z,23.03
2022-11-15T14:42:34.805Z,23.04
2022-11-15T14:45:03.387Z,23.01
2022-11-15T14:47:31.768Z,22.98
2022-11-15T14:50:00.047Z,22.98
2022-11-15T14:52:32.729Z,22.98
2022-11-15T14:55:03.480Z,22.94
2022-11-15T14:57:32.039Z,22.80
2022-11-15T15:00:00.236Z,22.84
2022-11-15T15:02:28.901Z,22.84
2022-11-15T15:04:57.119Z,22.83
2022-11-15T15:07:27.819Z,22.83
2022-11-15T15:10:11.352Z,22.83
2022-11-15T15:12:45.048Z,22.86
2022-11-15T15:15:18.547Z,22.91
2022-11-15T15:17:46.827Z,22.90
2022-11-15T15:20:15.727Z,22.89
2022-11-15T15:22:44.227Z,22.89
2022-11-15T15:25:32.134Z,22.91
2022-11-15T15:28:01.664Z,23.06
2022-11-15T15:30:31.868Z,22.92
2022-11-15T15:33:00.037Z,22.92
2022-11-15T15:35:33.201Z,22.94
2022-11-15T15:38:01.930Z,22.93
2022-11-15T15:40:32.528Z,22.95
2022-11-15T15:43:01.212Z,22.94
2022-11-15T15:45:30.874Z,22.95
2022-11-15T15:47:59.229Z,22.95
2022-11-15T15:50:33.548Z,22.93
2022-11-15T15:53:03.867Z,22.93
2022-11-15T15:55:32.965Z,22.94
2022-11-15T15:58:01.243Z,22.99
2022-11-15T16:00:29.720Z,23.09
2022-11-15T16:02:58.021Z,23.01
2022-11-15T16:05:26.481Z,22.97
2022-11-15T16:07:54.966Z,22.86
2022-11-15T16:10:23.449Z,22.90
2022-11-15T16:12:52.742Z,23.08
2022-11-15T16:15:22.953Z,23.09
2022-11-15T16:17:56.391Z,23.15
2022-11-15T16:20:36.646Z,23.23
2022-11-15T16:23:09.566Z,23.31
2022-11-15T16:25:49.765Z,23.37
2022-11-15T16:28:30.054Z,23.42
2022-11-15T16:31:04.969Z,23.41
2022-11-15T16:33:33.864Z,23.42
2022-11-15T16:36:03.352Z,23.50
2022-11-15T16:38:32.855Z,23.50
2022-11-15T16:41:01.439Z,23.56
2022-11-15T16:43:29.932Z,23.64
2022-11-15T16:45:58.409Z,23.64
2022-11-15T16:48:28.834Z,23.69
2022-11-15T16:51:00.594Z,23.73
2022-11-15T16:53:28.969Z,23.80
2022-11-15T16:55:57.699Z,23.89
2022-11-15T16:58:25.836Z,23.91
2022-11-15T17:00:56.250Z,23.97
2022-11-15T17:03:25.463Z,23.99
2022-11-15T17:05:53.836Z,24.05
2022-11-15T17:08:22.939Z,24.03
2022-11-15T17:10:51.519Z,24.02
2022-11-15T17:13:19.795Z,24.09
2022-11-15T17:15:48.070Z,24.18
2022-11-15T17:18:16.453Z,24.20
2022-11-15T17:20:44.934Z,24.23
2022-11-15T17:23:14.969Z,24.24
2022-11-15T17:25:43.227Z,24.23
2022-11-15T17:28:11.605Z,24.32
2022-11-15T17:30:43.671Z,24.33
2022-11-15T17:33:11.948Z,24.35
2022-11-15T17:35:40.531Z,24.35
2022-11-15T17:38:08.913Z,24.42
2022-11-15T17:40:37.052Z,24.38
2022-11-15T17:43:06.919Z,24.44
2022-11-15T17:45:35.487Z,24.45
2022-11-15T17:48:04.068Z,24.51
2022-11-15T17:50:32.348Z,24.53
2022-11-15T17:53:00.834Z,24.51
2022-11-15T17:55:29.123Z,24.47
2022-11-15T17:57:57.484Z,24.48
2022-11-15T18:00:25.757Z,24.45
2022-11-15T18:02:54.067Z,24.46
2022-11-15T18:05:22.455Z,24.44
2022-11-15T18:07:50.904Z,24.44
2022-11-15T18:10:19.382Z,24.43
2022-11-15T18:12:47.905Z,24.43
2022-11-15T18:15:16.343Z,24.45
2022-11-15T18:17:44.620Z,24.45
2022-11-15T18:20:13.209Z,24.45
2022-11-15T18:22:41.479Z,24.42
2022-11-15T18:25:10.988Z,24.42
2022-11-15T18:27:39.378Z,24.36
2022-11-15T18:30:08.973Z,24.68
2022-11-15T18:32:37.148Z,24.64
2022-11-15T18:35:06.616Z,24.59
2022-11-15T18:37:35.094Z,24.51
2022-11-15T18:40:05.095Z,24.48
2022-11-15T18:42:33.327Z,24.45
2022-11-15T18:45:02.216Z,24.41
2022-11-15T18:47:31.931Z,24.38
2022-11-15T18:50:00.149Z,24.34
2022-11-15T18:52:28.690Z,24.30
2022-11-15T18:54:57.168Z,24.27
2022-11-15T18:57:25.752Z,24.24
2022-11-15T18:59:54.134Z,24.26
2022-11-15T19:02:22.510Z,24.22
2022-11-15T19:04:51.113Z,24.20
2022-11-15T19:07:19.412Z,24.19
2022-11-15T19:09:48.265Z,24.20
2022-11-15T19:12:16.646Z,24.21
2022-11-15T19:14:44.922Z,24.17
2022-11-15T19:17:13.313Z,24.12
2022-11-15T19:19:41.633Z,24.12
2022-11-15T19:22:09.960Z,24.06
2022-11-15T19:24:38.230Z,24.05
2022-11-15T19:27:06.512Z,24.03
2022-11-15T19:29:34.993Z,24.01
2022-11-15T19:32:04.297Z,24.00
2022-11-15T19:34:32.785Z,23.96
2022-11-15T19:37:01.258Z,23.96
2022-11-15T19:39:29.536Z,23.93
2022-11-15T19:41:57.816Z,23.91
2022-11-15T19:44:27.520Z,23.90
2022-11-15T19:46:55.799Z,23.88
2022-11-15T19:49:24.151Z,23.87
2022-11-15T19:51:52.462Z,23.88
2022-11-15T19:54:20.833Z,23.87
2022-11-15T19:56:49.315Z,23.87
2022-11-15T19:59:17.628Z,23.85
2022-11-15T20:01:46.176Z,23.85
2022-11-15T20:04:14.571Z,23.85
2022-11-15T20:06:43.472Z,23.83
2022-11-15T20:09:15.479Z,23.82
2022-11-15T20:11:44.506Z,23.80
2022-11-15T20:14:13.404Z,23.80
2022-11-15T20:16:42.189Z,23.80
2022-11-15T20:19:12.827Z,23.81
2022-11-15T20:21:41.307Z,23.80
2022-11-15T20:24:09.781Z,23.74
2022-11-15T20:26:39.184Z,23.68
2022-11-15T20:29:08.840Z,23.56
2022-11-15T20:31:37.287Z,23.44
2022-11-15T20:34:05.960Z,23.35
2022-11-15T20:36:34.170Z,23.53
2022-11-15T20:39:02.516Z,23.62
2022-11-15T20:41:31.302Z,23.67
2022-11-15T20:43:59.887Z,23.87
2022-11-15T20:46:28.266Z,24.01
2022-11-15T20:48:56.542Z,24.06
2022-11-15T20:51:24.820Z,24.13
2022-11-15T20:53:53.205Z,24.17
2022-11-15T20:56:22.293Z,24.18
2022-11-15T20:58:50.986Z,24.18
2022-11-15T21:01:25.023Z,24.18
2022-11-15T21:03:54.732Z,24.16
2022-11-15T21:06:24.594Z,24.16
2022-11-15T21:09:12.351Z,24.14
2022-11-15T21:12:00.100Z,24.16
2022-11-15T21:14:28.697Z,24.15
2022-11-15T21:16:56.855Z,24.13
2022-11-15T21:19:29.027Z,24.15
2022-11-15T21:22:01.694Z,24.14
2022-11-15T21:24:30.485Z,24.15
2022-11-15T21:26:59.372Z,24.14
2022-11-15T21:29:28.881Z,24.15
2022-11-15T21:31:57.164Z,24.13
2022-11-15T21:34:25.538Z,24.11
2022-11-15T21:36:54.019Z,24.07
2022-11-15T21:39:22.399Z,24.05
2022-11-15T21:41:50.673Z,24.05
2022-11-15T21:44:19.258Z,24.02
2022-11-15T21:46:47.635Z,24.02
2022-11-15T21:49:16.219Z,24.01
2022-11-15T21:51:44.602Z,24.00
2022-11-15T21:54:12.988Z,23.99
2022-11-15T21:56:43.508Z,24.00
2022-11-15T21:59:11.990Z,23.96
2022-11-15T22:01:59.013Z,23.97
2022-11-15T22:04:27.490Z,23.96
2022-11-15T22:06:55.995Z,23.95
2022-11-15T22:09:24.451Z,23.93
2022-11-15T22:11:52.835Z,23.91
2022-11-15T22:14:21.209Z,23.89
2022-11-15T22:16:49.534Z,23.89
2022-11-15T22:19:17.869Z,23.88
2022-11-15T22:21:46.205Z,23.87
2022-11-15T22:24:14.626Z,23.86
2022-11-15T22:26:43.107Z,23.84
2022-11-15T22:29:11.385Z,23.81
2022-11-15T22:31:39.780Z,23.80
2022-11-15T22:34:08.757Z,23.78
2022-11-15T22:36:58.548Z,23.77
2022-11-15T22:39:25.491Z,23.77
2022-11-15T22:41:54.687Z,23.79
2022-11-15T22:44:22.965Z,23.77
2022-11-15T22:46:51.236Z,23.75
2022-11-15T22:49:19.512Z,23.73
2022-11-15T22:51:47.896Z,23.71
2022-11-15T22:54:16.170Z,23.71
2022-11-15T22:56:44.449Z,23.70
2022-11-15T22:59:13.338Z,23.67
2022-11-15T23:01:41.511Z,23.66
2022-11-15T23:04:09.801Z,23.65
2022-11-15T23:06:38.172Z,23.63
2022-11-15T23:09:06.446Z,23.63
2022-11-15T23:11:53.364Z,23.60
2022-11-15T23:14:21.636Z,23.59
2022-11-15T23:16:50.018Z,23.58
2022-11-15T23:19:18.350Z,23.58
2022-11-15T23:22:06.028Z,23.58
2022-11-15T23:24:34.417Z,23.57
2022-11-15T23:27:06.496Z,23.56
2022-11-15T23:29:55.028Z,23.56
2022-11-15T23:32:42.247Z,23.58
2022-11-15T23:35:10.524Z,23.59
2022-11-15T23:37:41.054Z,23.55
2022-11-15T23:40:10.249Z,23.53
2022-11-15T23:42:38.430Z,23.51
2022-11-15T23:45:07.729Z,23.49
2022-11-15T23:47:35.904Z,23.48
2022-11-15T23:50:04.702Z,23.46
2022-11-15T23:52:33.019Z,23.44
2022-11-15T23:55:01.459Z,23.43
2022-11-15T23:57:29.842Z,23.42
